sensor_id;sensor_type;location;lat;lon;timestamp;temperature;humidity
22779;DHT22;11556;51.194;3.800;2024-03-22T00:00:15;13.20;99.90
22779;DHT22;11556;51.194;3.800;2024-03-22T00:02:41;13.00;99.90
22779;DHT22;11556;51.194;3.800;2024-03-22T00:05:07;12.90;99.90
22779;DHT22;11556;51.194;3.800;2024-03-22T00:07:32;12.90;99.90
22779;DHT22;11556;51.194;3.800;2024-03-22T00:09:58;12.90;99.90
22779;DHT22;11556;51.194;3.800;2024-03-22T00:12:25;12.80;99.90
22779;DHT22;11556;51.194;3.800;2024-03-22T00:14:51;12.80;99.90
22779;DHT22;11556;51.194;3.800;2024-03-22T00:17:20;12.80;99.90
22779;DHT22;11556;51.194;3.800;2024-03-22T00:19:46;12.90;99.90
22779;DHT22;11556;51.194;3.800;2024-03-22T00:22:12;13.00;99.90
22779;DHT22;11556;51.194;3.800;2024-03-22T00:24:37;12.80;99.90
22779;DHT22;11556;51.194;3.800;2024-03-22T00:27:03;12.80;99.90
22779;DHT22;11556;51.194;3.800;2024-03-22T00:29:29;12.70;99.90
22779;DHT22;11556;51.194;3.800;2024-03-22T00:31:54;12.70;99.90
22779;DHT22;11556;51.194;3.800;2024-03-22T00:34:20;12.60;99.90
22779;DHT22;11556;51.194;3.800;2024-03-22T00:36:46;12.40;99.90
22779;DHT22;11556;51.194;3.800;2024-03-22T00:39:12;12.40;99.90
22779;DHT22;11556;51.194;3.800;2024-03-22T00:41:38;12.50;99.90
22779;DHT22;11556;51.194;3.800;2024-03-22T00:44:04;12.40;99.90
22779;DHT22;11556;51.194;3.800;2024-03-22T00:46:30;12.30;99.90
22779;DHT22;11556;51.194;3.800;2024-03-22T00:48:56;12.30;99.90
22779;DHT22;11556;51.194;3.800;2024-03-22T00:51:24;12.30;99.90
22779;DHT22;11556;51.194;3.800;2024-03-22T00:53:50;12.40;99.90
22779;DHT22;11556;51.194;3.800;2024-03-22T00:56:16;12.40;99.90
22779;DHT22;11556;51.194;3.800;2024-03-22T00:58:41;12.40;99.90
22779;DHT22;11556;51.194;3.800;2024-03-22T01:01:07;12.30;99.90
22779;DHT22;11556;51.194;3.800;2024-03-22T01:03:33;12.30;99.90
22779;DHT22;11556;51.194;3.800;2024-03-22T01:05:58;12.30;99.90
22779;DHT22;11556;51.194;3.800;2024-03-22T01:08:24;12.10;99.90
22779;DHT22;11556;51.194;3.800;2024-03-22T01:10:49;12.10;99.90
22779;DHT22;11556;51.194;3.800;2024-03-22T01:13:15;12.10;99.90
22779;DHT22;11556;51.194;3.800;2024-03-22T01:15:41;12.10;99.90
22779;DHT22;11556;51.194;3.800;2024-03-22T01:18:06;12.10;99.90
22779;DHT22;11556;51.194;3.800;2024-03-22T01:20:32;12.10;99.90
22779;DHT22;11556;51.194;3.800;2024-03-22T01:22:59;12.10;99.90
22779;DHT22;11556;51.194;3.800;2024-03-22T01:25:26;12.20;99.90
22779;DHT22;11556;51.194;3.800;2024-03-22T01:27:52;12.20;99.90
22779;DHT22;11556;51.194;3.800;2024-03-22T01:30:18;12.00;99.90
22779;DHT22;11556;51.194;3.800;2024-03-22T01:32:43;12.00;99.90
22779;DHT22;11556;51.194;3.800;2024-03-22T01:35:09;12.10;99.90
22779;DHT22;11556;51.194;3.800;2024-03-22T01:37:35;12.10;99.90
22779;DHT22;11556;51.194;3.800;2024-03-22T01:40:01;12.00;99.90
22779;DHT22;11556;51.194;3.800;2024-03-22T01:42:26;12.00;99.90
22779;DHT22;11556;51.194;3.800;2024-03-22T01:44:52;12.00;99.90
22779;DHT22;11556;51.194;3.800;2024-03-22T01:47:18;12.20;99.90
22779;DHT22;11556;51.194;3.800;2024-03-22T01:49:43;12.00;99.90
22779;DHT22;11556;51.194;3.800;2024-03-22T01:52:09;11.90;99.90
22779;DHT22;11556;51.194;3.800;2024-03-22T01:54:35;12.00;99.90
22779;DHT22;11556;51.194;3.800;2024-03-22T01:57:01;12.10;99.90
22779;DHT22;11556;51.194;3.800;2024-03-22T01:59:28;12.10;99.90
22779;DHT22;11556;51.194;3.800;2024-03-22T02:01:54;12.20;99.90
22779;DHT22;11556;51.194;3.800;2024-03-22T02:04:20;12.20;99.90
22779;DHT22;11556;51.194;3.800;2024-03-22T02:06:46;12.20;99.90
22779;DHT22;11556;51.194;3.800;2024-03-22T02:09:12;12.20;99.90
22779;DHT22;11556;51.194;3.800;2024-03-22T02:11:39;12.20;99.90
22779;DHT22;11556;51.194;3.800;2024-03-22T02:14:05;12.20;99.90
22779;DHT22;11556;51.194;3.800;2024-03-22T02:16:31;12.10;99.90
22779;DHT22;11556;51.194;3.800;2024-03-22T02:18:56;12.00;99.90
22779;DHT22;11556;51.194;3.800;2024-03-22T02:21:22;12.00;99.90
22779;DHT22;11556;51.194;3.800;2024-03-22T02:23:48;12.00;99.90
22779;DHT22;11556;51.194;3.800;2024-03-22T02:26:13;11.90;99.90
22779;DHT22;11556;51.194;3.800;2024-03-22T02:28:39;11.90;99.90
22779;DHT22;11556;51.194;3.800;2024-03-22T02:31:05;11.90;99.90
22779;DHT22;11556;51.194;3.800;2024-03-22T02:33:31;11.90;99.90
22779;DHT22;11556;51.194;3.800;2024-03-22T02:35:56;11.80;99.90
22779;DHT22;11556;51.194;3.800;2024-03-22T02:38:22;11.70;99.90
22779;DHT22;11556;51.194;3.800;2024-03-22T02:40:50;11.70;99.90
22779;DHT22;11556;51.194;3.800;2024-03-22T02:43:16;11.70;99.90
22779;DHT22;11556;51.194;3.800;2024-03-22T02:45:46;11.60;99.90
22779;DHT22;11556;51.194;3.800;2024-03-22T02:48:11;11.50;99.90
22779;DHT22;11556;51.194;3.800;2024-03-22T02:50:37;11.30;99.90
22779;DHT22;11556;51.194;3.800;2024-03-22T02:53:04;11.30;99.90
22779;DHT22;11556;51.194;3.800;2024-03-22T02:55:30;11.30;99.90
22779;DHT22;11556;51.194;3.800;2024-03-22T02:57:56;11.40;99.90
22779;DHT22;11556;51.194;3.800;2024-03-22T03:00:23;11.30;99.90
22779;DHT22;11556;51.194;3.800;2024-03-22T03:02:49;11.30;99.90
22779;DHT22;11556;51.194;3.800;2024-03-22T03:05:15;11.30;99.90
22779;DHT22;11556;51.194;3.800;2024-03-22T03:07:40;11.30;99.90
22779;DHT22;11556;51.194;3.800;2024-03-22T03:10:07;11.40;99.90
22779;DHT22;11556;51.194;3.800;2024-03-22T03:12:33;11.40;99.90
22779;DHT22;11556;51.194;3.800;2024-03-22T03:14:58;11.40;99.90
22779;DHT22;11556;51.194;3.800;2024-03-22T03:17:24;11.50;99.90
22779;DHT22;11556;51.194;3.800;2024-03-22T03:19:50;11.40;99.90
22779;DHT22;11556;51.194;3.800;2024-03-22T03:22:15;11.50;99.90
22779;DHT22;11556;51.194;3.800;2024-03-22T03:24:41;11.50;99.90
22779;DHT22;11556;51.194;3.800;2024-03-22T03:27:07;11.40;99.90
22779;DHT22;11556;51.194;3.800;2024-03-22T03:29:32;11.40;99.90
22779;DHT22;11556;51.194;3.800;2024-03-22T03:31:58;11.40;99.90
22779;DHT22;11556;51.194;3.800;2024-03-22T03:34:24;11.30;99.90
22779;DHT22;11556;51.194;3.800;2024-03-22T03:36:49;11.40;99.90
22779;DHT22;11556;51.194;3.800;2024-03-22T03:39:15;11.30;99.90
22779;DHT22;11556;51.194;3.800;2024-03-22T03:41:41;11.30;99.90
22779;DHT22;11556;51.194;3.800;2024-03-22T03:44:06;11.30;99.90
22779;DHT22;11556;51.194;3.800;2024-03-22T03:46:32;11.40;99.90
22779;DHT22;11556;51.194;3.800;2024-03-22T03:48:57;11.40;99.90
22779;DHT22;11556;51.194;3.800;2024-03-22T03:51:23;11.40;99.90
22779;DHT22;11556;51.194;3.800;2024-03-22T03:53:49;11.30;99.90
22779;DHT22;11556;51.194;3.800;2024-03-22T03:56:14;11.30;99.90
22779;DHT22;11556;51.194;3.800;2024-03-22T03:58:40;11.30;99.90
22779;DHT22;11556;51.194;3.800;2024-03-22T04:01:07;11.30;99.90
22779;DHT22;11556;51.194;3.800;2024-03-22T04:03:32;11.40;99.90
22779;DHT22;11556;51.194;3.800;2024-03-22T04:05:58;11.50;99.90
22779;DHT22;11556;51.194;3.800;2024-03-22T04:08:25;11.50;99.90
22779;DHT22;11556;51.194;3.800;2024-03-22T04:10:55;11.40;99.90
22779;DHT22;11556;51.194;3.800;2024-03-22T04:13:24;11.40;99.90
22779;DHT22;11556;51.194;3.800;2024-03-22T04:15:50;11.30;99.90
22779;DHT22;11556;51.194;3.800;2024-03-22T04:18:16;11.40;99.90
22779;DHT22;11556;51.194;3.800;2024-03-22T04:20:42;11.40;99.90
22779;DHT22;11556;51.194;3.800;2024-03-22T04:23:09;11.50;99.90
22779;DHT22;11556;51.194;3.800;2024-03-22T04:25:35;11.50;99.90
22779;DHT22;11556;51.194;3.800;2024-03-22T04:28:01;11.60;99.90
22779;DHT22;11556;51.194;3.800;2024-03-22T04:30:26;11.60;99.90
22779;DHT22;11556;51.194;3.800;2024-03-22T04:32:52;11.60;99.90
22779;DHT22;11556;51.194;3.800;2024-03-22T04:35:18;11.60;99.90
22779;DHT22;11556;51.194;3.800;2024-03-22T04:37:43;11.60;99.90
22779;DHT22;11556;51.194;3.800;2024-03-22T04:40:09;11.50;99.90
22779;DHT22;11556;51.194;3.800;2024-03-22T04:42:35;11.50;99.90
22779;DHT22;11556;51.194;3.800;2024-03-22T04:45:01;11.60;99.90
22779;DHT22;11556;51.194;3.800;2024-03-22T04:47:26;11.60;99.90
22779;DHT22;11556;51.194;3.800;2024-03-22T04:49:52;11.60;99.90
22779;DHT22;11556;51.194;3.800;2024-03-22T04:52:18;11.50;99.90
22779;DHT22;11556;51.194;3.800;2024-03-22T04:54:43;11.50;99.90
22779;DHT22;11556;51.194;3.800;2024-03-22T04:57:09;11.40;99.90
22779;DHT22;11556;51.194;3.800;2024-03-22T04:59:35;11.50;99.90
22779;DHT22;11556;51.194;3.800;2024-03-22T05:02:00;11.50;99.90
22779;DHT22;11556;51.194;3.800;2024-03-22T05:04:26;11.60;99.90
22779;DHT22;11556;51.194;3.800;2024-03-22T05:06:51;11.60;99.90
22779;DHT22;11556;51.194;3.800;2024-03-22T05:09:17;11.60;99.90
22779;DHT22;11556;51.194;3.800;2024-03-22T05:11:43;11.60;99.90
22779;DHT22;11556;51.194;3.800;2024-03-22T05:14:08;11.60;99.90
22779;DHT22;11556;51.194;3.800;2024-03-22T05:16:34;11.60;99.90
22779;DHT22;11556;51.194;3.800;2024-03-22T05:19:00;11.40;99.90
22779;DHT22;11556;51.194;3.800;2024-03-22T05:21:26;11.40;99.90
22779;DHT22;11556;51.194;3.800;2024-03-22T05:23:52;11.40;99.90
22779;DHT22;11556;51.194;3.800;2024-03-22T05:26:17;11.50;99.90
22779;DHT22;11556;51.194;3.800;2024-03-22T05:28:46;11.40;99.90
22779;DHT22;11556;51.194;3.800;2024-03-22T05:31:11;11.40;99.90
22779;DHT22;11556;51.194;3.800;2024-03-22T05:33:37;11.30;99.90
22779;DHT22;11556;51.194;3.800;2024-03-22T05:36:03;11.30;99.90
22779;DHT22;11556;51.194;3.800;2024-03-22T05:38:28;11.40;99.90
22779;DHT22;11556;51.194;3.800;2024-03-22T05:40:54;11.20;99.90
22779;DHT22;11556;51.194;3.800;2024-03-22T05:43:20;11.40;99.90
22779;DHT22;11556;51.194;3.800;2024-03-22T05:45:45;11.40;99.90
22779;DHT22;11556;51.194;3.800;2024-03-22T05:48:11;11.40;99.90
22779;DHT22;11556;51.194;3.800;2024-03-22T05:50:36;11.50;99.90
22779;DHT22;11556;51.194;3.800;2024-03-22T05:53:02;11.30;99.90
22779;DHT22;11556;51.194;3.800;2024-03-22T05:55:28;11.50;99.90
22779;DHT22;11556;51.194;3.800;2024-03-22T05:57:56;11.50;99.90
22779;DHT22;11556;51.194;3.800;2024-03-22T06:00:22;11.40;99.90
22779;DHT22;11556;51.194;3.800;2024-03-22T06:02:47;11.40;99.90
22779;DHT22;11556;51.194;3.800;2024-03-22T06:05:13;11.40;99.90
22779;DHT22;11556;51.194;3.800;2024-03-22T06:07:39;11.40;99.90
22779;DHT22;11556;51.194;3.800;2024-03-22T06:10:08;11.40;99.90
22779;DHT22;11556;51.194;3.800;2024-03-22T06:12:35;11.40;99.90
22779;DHT22;11556;51.194;3.800;2024-03-22T06:15:01;11.50;99.90
22779;DHT22;11556;51.194;3.800;2024-03-22T06:17:27;11.40;99.90
22779;DHT22;11556;51.194;3.800;2024-03-22T06:19:52;11.40;99.90
22779;DHT22;11556;51.194;3.800;2024-03-22T06:22:18;11.40;99.90
22779;DHT22;11556;51.194;3.800;2024-03-22T06:24:44;11.50;99.90
22779;DHT22;11556;51.194;3.800;2024-03-22T06:27:10;11.70;99.90
22779;DHT22;11556;51.194;3.800;2024-03-22T06:29:36;11.70;99.90
22779;DHT22;11556;51.194;3.800;2024-03-22T06:32:01;11.70;99.90
22779;DHT22;11556;51.194;3.800;2024-03-22T06:34:27;11.60;99.90
22779;DHT22;11556;51.194;3.800;2024-03-22T06:36:53;11.50;99.90
22779;DHT22;11556;51.194;3.800;2024-03-22T06:39:18;11.60;99.90
22779;DHT22;11556;51.194;3.800;2024-03-22T06:41:45;11.50;99.90
22779;DHT22;11556;51.194;3.800;2024-03-22T06:44:10;11.40;99.90
22779;DHT22;11556;51.194;3.800;2024-03-22T06:46:38;11.50;99.90
22779;DHT22;11556;51.194;3.800;2024-03-22T06:49:04;11.60;99.90
22779;DHT22;11556;51.194;3.800;2024-03-22T06:51:30;11.70;99.90
22779;DHT22;11556;51.194;3.800;2024-03-22T06:53:55;11.70;99.90
22779;DHT22;11556;51.194;3.800;2024-03-22T06:56:21;11.60;99.90
22779;DHT22;11556;51.194;3.800;2024-03-22T06:58:46;11.60;99.90
22779;DHT22;11556;51.194;3.800;2024-03-22T07:01:12;11.60;99.90
22779;DHT22;11556;51.194;3.800;2024-03-22T07:03:38;11.70;99.90
22779;DHT22;11556;51.194;3.800;2024-03-22T07:06:04;11.80;99.90
22779;DHT22;11556;51.194;3.800;2024-03-22T07:08:31;11.80;99.90
22779;DHT22;11556;51.194;3.800;2024-03-22T07:10:57;12.10;99.90
22779;DHT22;11556;51.194;3.800;2024-03-22T07:13:23;12.00;99.90
22779;DHT22;11556;51.194;3.800;2024-03-22T07:15:49;12.00;99.90
22779;DHT22;11556;51.194;3.800;2024-03-22T07:18:15;12.20;99.90
22779;DHT22;11556;51.194;3.800;2024-03-22T07:20:45;12.40;99.90
22779;DHT22;11556;51.194;3.800;2024-03-22T07:23:11;12.50;99.90
22779;DHT22;11556;51.194;3.800;2024-03-22T07:25:37;12.60;99.90
22779;DHT22;11556;51.194;3.800;2024-03-22T07:28:03;12.80;99.90
22779;DHT22;11556;51.194;3.800;2024-03-22T07:30:28;13.20;99.90
22779;DHT22;11556;51.194;3.800;2024-03-22T07:32:54;13.40;99.90
22779;DHT22;11556;51.194;3.800;2024-03-22T07:35:19;13.70;99.90
22779;DHT22;11556;51.194;3.800;2024-03-22T07:37:45;13.90;99.90
22779;DHT22;11556;51.194;3.800;2024-03-22T07:40:11;14.10;99.90
22779;DHT22;11556;51.194;3.800;2024-03-22T07:42:36;14.10;99.90
22779;DHT22;11556;51.194;3.800;2024-03-22T07:45:02;13.90;99.90
22779;DHT22;11556;51.194;3.800;2024-03-22T07:47:28;13.90;99.90
22779;DHT22;11556;51.194;3.800;2024-03-22T07:49:53;14.00;99.90
22779;DHT22;11556;51.194;3.800;2024-03-22T07:52:19;14.10;99.90
22779;DHT22;11556;51.194;3.800;2024-03-22T07:54:45;14.00;99.90
22779;DHT22;11556;51.194;3.800;2024-03-22T07:57:17;14.00;99.90
22779;DHT22;11556;51.194;3.800;2024-03-22T07:59:43;14.10;99.90
22779;DHT22;11556;51.194;3.800;2024-03-22T08:02:09;14.00;99.90
22779;DHT22;11556;51.194;3.800;2024-03-22T08:04:35;14.00;99.90
22779;DHT22;11556;51.194;3.800;2024-03-22T08:07:01;14.00;99.90
22779;DHT22;11556;51.194;3.800;2024-03-22T08:09:27;14.20;99.90
22779;DHT22;11556;51.194;3.800;2024-03-22T08:11:53;14.20;99.90
22779;DHT22;11556;51.194;3.800;2024-03-22T08:14:18;14.10;99.90
22779;DHT22;11556;51.194;3.800;2024-03-22T08:16:44;14.10;99.90
22779;DHT22;11556;51.194;3.800;2024-03-22T08:19:09;14.10;99.90
22779;DHT22;11556;51.194;3.800;2024-03-22T08:21:35;14.10;99.90
22779;DHT22;11556;51.194;3.800;2024-03-22T08:24:02;14.00;99.90
22779;DHT22;11556;51.194;3.800;2024-03-22T08:26:27;13.90;99.90
22779;DHT22;11556;51.194;3.800;2024-03-22T08:28:53;14.00;99.90
22779;DHT22;11556;51.194;3.800;2024-03-22T08:31:19;13.90;99.90
22779;DHT22;11556;51.194;3.800;2024-03-22T08:33:51;13.80;99.90
22779;DHT22;11556;51.194;3.800;2024-03-22T08:36:17;14.00;99.90
22779;DHT22;11556;51.194;3.800;2024-03-22T08:38:42;13.80;99.90
22779;DHT22;11556;51.194;3.800;2024-03-22T08:41:08;13.70;99.90
22779;DHT22;11556;51.194;3.800;2024-03-22T08:43:33;13.60;99.90
22779;DHT22;11556;51.194;3.800;2024-03-22T08:45:59;13.50;99.90
22779;DHT22;11556;51.194;3.800;2024-03-22T08:48:25;13.40;99.90
22779;DHT22;11556;51.194;3.800;2024-03-22T08:50:50;13.40;99.90
22779;DHT22;11556;51.194;3.800;2024-03-22T08:53:16;13.50;99.90
22779;DHT22;11556;51.194;3.800;2024-03-22T08:55:48;13.60;99.90
22779;DHT22;11556;51.194;3.800;2024-03-22T08:58:14;13.70;99.90
22779;DHT22;11556;51.194;3.800;2024-03-22T09:00:44;13.60;99.90
22779;DHT22;11556;51.194;3.800;2024-03-22T09:03:10;13.70;99.90
22779;DHT22;11556;51.194;3.800;2024-03-22T09:05:36;13.60;99.90
22779;DHT22;11556;51.194;3.800;2024-03-22T09:08:02;13.60;99.90
22779;DHT22;11556;51.194;3.800;2024-03-22T09:10:29;13.60;99.90
22779;DHT22;11556;51.194;3.800;2024-03-22T09:12:55;13.70;99.90
22779;DHT22;11556;51.194;3.800;2024-03-22T09:15:21;13.60;99.90
22779;DHT22;11556;51.194;3.800;2024-03-22T09:17:47;13.70;99.90
22779;DHT22;11556;51.194;3.800;2024-03-22T09:20:13;13.70;99.90
22779;DHT22;11556;51.194;3.800;2024-03-22T09:22:39;13.70;99.90
22779;DHT22;11556;51.194;3.800;2024-03-22T09:25:05;13.70;99.90
22779;DHT22;11556;51.194;3.800;2024-03-22T09:27:31;13.90;99.90
22779;DHT22;11556;51.194;3.800;2024-03-22T09:29:58;13.90;99.90
22779;DHT22;11556;51.194;3.800;2024-03-22T09:32:23;14.10;99.90
22779;DHT22;11556;51.194;3.800;2024-03-22T09:34:49;14.10;99.90
22779;DHT22;11556;51.194;3.800;2024-03-22T09:37:18;14.10;99.90
22779;DHT22;11556;51.194;3.800;2024-03-22T09:39:44;14.10;99.90
22779;DHT22;11556;51.194;3.800;2024-03-22T09:42:16;14.10;99.90
22779;DHT22;11556;51.194;3.800;2024-03-22T09:44:49;14.20;99.90
22779;DHT22;11556;51.194;3.800;2024-03-22T09:47:16;14.10;99.90
22779;DHT22;11556;51.194;3.800;2024-03-22T09:49:43;14.00;99.90
22779;DHT22;11556;51.194;3.800;2024-03-22T09:52:20;13.90;99.90
22779;DHT22;11556;51.194;3.800;2024-03-22T09:54:46;14.00;99.90
22779;DHT22;11556;51.194;3.800;2024-03-22T09:57:15;14.00;99.90
22779;DHT22;11556;51.194;3.800;2024-03-22T09:59:46;14.00;99.90
22779;DHT22;11556;51.194;3.800;2024-03-22T10:02:12;14.10;99.90
22779;DHT22;11556;51.194;3.800;2024-03-22T10:04:39;14.10;99.90
22779;DHT22;11556;51.194;3.800;2024-03-22T10:07:05;13.90;99.90
22779;DHT22;11556;51.194;3.800;2024-03-22T10:09:32;13.90;99.90
22779;DHT22;11556;51.194;3.800;2024-03-22T10:11:58;13.90;99.90
22779;DHT22;11556;51.194;3.800;2024-03-22T10:14:24;13.90;99.90
22779;DHT22;11556;51.194;3.800;2024-03-22T10:16:51;14.00;99.90
22779;DHT22;11556;51.194;3.800;2024-03-22T10:19:21;13.80;99.90
22779;DHT22;11556;51.194;3.800;2024-03-22T10:22:07;13.80;99.90
22779;DHT22;11556;51.194;3.800;2024-03-22T10:24:32;13.90;99.90
22779;DHT22;11556;51.194;3.800;2024-03-22T10:26:59;14.00;99.90
22779;DHT22;11556;51.194;3.800;2024-03-22T10:29:24;13.90;99.90
22779;DHT22;11556;51.194;3.800;2024-03-22T10:31:51;13.60;99.90
22779;DHT22;11556;51.194;3.800;2024-03-22T10:34:18;13.80;99.90
22779;DHT22;11556;51.194;3.800;2024-03-22T10:36:46;13.80;99.90
22779;DHT22;11556;51.194;3.800;2024-03-22T10:39:18;14.00;99.90
22779;DHT22;11556;51.194;3.800;2024-03-22T10:41:47;13.80;99.90
22779;DHT22;11556;51.194;3.800;2024-03-22T10:44:14;13.80;99.90
22779;DHT22;11556;51.194;3.800;2024-03-22T10:46:47;13.90;99.90
22779;DHT22;11556;51.194;3.800;2024-03-22T10:49:16;13.90;99.90
22779;DHT22;11556;51.194;3.800;2024-03-22T10:51:45;13.70;99.90
22779;DHT22;11556;51.194;3.800;2024-03-22T10:54:19;13.90;99.90
22779;DHT22;11556;51.194;3.800;2024-03-22T10:56:46;13.90;99.90
22779;DHT22;11556;51.194;3.800;2024-03-22T10:59:21;14.10;99.90
22779;DHT22;11556;51.194;3.800;2024-03-22T11:01:48;14.10;99.90
22779;DHT22;11556;51.194;3.800;2024-03-22T11:04:29;14.20;99.90
22779;DHT22;11556;51.194;3.800;2024-03-22T11:06:56;14.30;99.90
22779;DHT22;11556;51.194;3.800;2024-03-22T11:09:26;14.40;99.90
22779;DHT22;11556;51.194;3.800;2024-03-22T11:11:53;14.40;99.90
22779;DHT22;11556;51.194;3.800;2024-03-22T11:14:19;14.40;99.90
22779;DHT22;11556;51.194;3.800;2024-03-22T11:16:50;14.30;99.90
22779;DHT22;11556;51.194;3.800;2024-03-22T11:19:16;14.30;99.90
22779;DHT22;11556;51.194;3.800;2024-03-22T11:21:41;14.30;99.90
22779;DHT22;11556;51.194;3.800;2024-03-22T11:24:07;14.40;99.90
22779;DHT22;11556;51.194;3.800;2024-03-22T11:26:35;14.50;99.90
22779;DHT22;11556;51.194;3.800;2024-03-22T11:29:01;14.50;99.90
22779;DHT22;11556;51.194;3.800;2024-03-22T11:31:27;14.50;99.90
22779;DHT22;11556;51.194;3.800;2024-03-22T11:33:56;14.30;99.90
22779;DHT22;11556;51.194;3.800;2024-03-22T11:36:23;14.30;99.90
22779;DHT22;11556;51.194;3.800;2024-03-22T11:38:49;14.30;99.90
22779;DHT22;11556;51.194;3.800;2024-03-22T11:41:28;14.30;99.90
22779;DHT22;11556;51.194;3.800;2024-03-22T11:43:55;14.30;99.90
22779;DHT22;11556;51.194;3.800;2024-03-22T11:46:23;14.20;99.90
22779;DHT22;11556;51.194;3.800;2024-03-22T11:48:53;14.10;99.90
22779;DHT22;11556;51.194;3.800;2024-03-22T11:51:19;14.10;99.90
22779;DHT22;11556;51.194;3.800;2024-03-22T11:53:49;14.10;99.90
22779;DHT22;11556;51.194;3.800;2024-03-22T11:56:18;14.00;99.90
22779;DHT22;11556;51.194;3.800;2024-03-22T11:58:48;14.10;99.90
22779;DHT22;11556;51.194;3.800;2024-03-22T12:01:17;14.20;99.90
22779;DHT22;11556;51.194;3.800;2024-03-22T12:03:48;14.00;99.90
22779;DHT22;11556;51.194;3.800;2024-03-22T12:06:15;13.80;99.90
22779;DHT22;11556;51.194;3.800;2024-03-22T12:08:41;13.90;99.90
22779;DHT22;11556;51.194;3.800;2024-03-22T12:11:10;13.90;99.90
22779;DHT22;11556;51.194;3.800;2024-03-22T12:13:37;13.90;99.90
22779;DHT22;11556;51.194;3.800;2024-03-22T12:16:04;13.90;99.90
22779;DHT22;11556;51.194;3.800;2024-03-22T12:18:30;13.90;99.90
22779;DHT22;11556;51.194;3.800;2024-03-22T12:20:55;13.80;99.90
22779;DHT22;11556;51.194;3.800;2024-03-22T12:23:21;13.60;99.90
22779;DHT22;11556;51.194;3.800;2024-03-22T12:25:47;13.80;99.90
22779;DHT22;11556;51.194;3.800;2024-03-22T12:28:12;13.90;99.90
22779;DHT22;11556;51.194;3.800;2024-03-22T12:30:40;13.80;99.90
22779;DHT22;11556;51.194;3.800;2024-03-22T12:33:05;13.70;99.90
22779;DHT22;11556;51.194;3.800;2024-03-22T12:35:39;13.50;99.90
22779;DHT22;11556;51.194;3.800;2024-03-22T12:38:05;13.60;99.90
22779;DHT22;11556;51.194;3.800;2024-03-22T12:40:31;13.70;99.90
22779;DHT22;11556;51.194;3.800;2024-03-22T12:42:58;13.60;99.90
22779;DHT22;11556;51.194;3.800;2024-03-22T12:45:24;13.60;99.90
22779;DHT22;11556;51.194;3.800;2024-03-22T12:47:50;13.60;99.90
22779;DHT22;11556;51.194;3.800;2024-03-22T12:50:15;13.60;99.90
22779;DHT22;11556;51.194;3.800;2024-03-22T12:52:41;13.50;99.90
22779;DHT22;11556;51.194;3.800;2024-03-22T12:55:07;13.50;99.90
22779;DHT22;11556;51.194;3.800;2024-03-22T12:57:33;13.50;99.90
22779;DHT22;11556;51.194;3.800;2024-03-22T12:59:58;13.40;99.90
22779;DHT22;11556;51.194;3.800;2024-03-22T13:02:24;13.50;99.90
22779;DHT22;11556;51.194;3.800;2024-03-22T13:04:53;13.40;99.90
22779;DHT22;11556;51.194;3.800;2024-03-22T13:07:22;13.40;99.90
22779;DHT22;11556;51.194;3.800;2024-03-22T13:09:47;13.40;99.90
22779;DHT22;11556;51.194;3.800;2024-03-22T13:12:13;13.20;99.90
22779;DHT22;11556;51.194;3.800;2024-03-22T13:14:39;13.10;99.90
22779;DHT22;11556;51.194;3.800;2024-03-22T13:17:04;13.00;99.90
22779;DHT22;11556;51.194;3.800;2024-03-22T13:19:30;13.00;99.90
22779;DHT22;11556;51.194;3.800;2024-03-22T13:21:56;13.00;99.90
22779;DHT22;11556;51.194;3.800;2024-03-22T13:24:21;13.10;99.90
22779;DHT22;11556;51.194;3.800;2024-03-22T13:26:47;13.20;99.90
22779;DHT22;11556;51.194;3.800;2024-03-22T13:29:13;13.10;99.90
22779;DHT22;11556;51.194;3.800;2024-03-22T13:31:39;13.10;99.90
22779;DHT22;11556;51.194;3.800;2024-03-22T13:34:05;13.00;99.90
22779;DHT22;11556;51.194;3.800;2024-03-22T13:36:30;13.20;99.90
22779;DHT22;11556;51.194;3.800;2024-03-22T13:38:59;13.20;99.90
22779;DHT22;11556;51.194;3.800;2024-03-22T13:41:24;13.20;99.90
22779;DHT22;11556;51.194;3.800;2024-03-22T13:43:50;13.30;99.90
22779;DHT22;11556;51.194;3.800;2024-03-22T13:46:16;13.30;99.90
22779;DHT22;11556;51.194;3.800;2024-03-22T13:48:43;13.30;99.90
22779;DHT22;11556;51.194;3.800;2024-03-22T13:51:08;13.20;99.90
22779;DHT22;11556;51.194;3.800;2024-03-22T13:53:35;13.30;99.90
22779;DHT22;11556;51.194;3.800;2024-03-22T13:56:02;13.40;99.90
22779;DHT22;11556;51.194;3.800;2024-03-22T13:58:27;13.40;99.90
22779;DHT22;11556;51.194;3.800;2024-03-22T14:00:53;13.20;99.90
22779;DHT22;11556;51.194;3.800;2024-03-22T14:03:19;13.10;99.90
22779;DHT22;11556;51.194;3.800;2024-03-22T14:05:45;13.00;99.90
22779;DHT22;11556;51.194;3.800;2024-03-22T14:08:11;12.90;99.90
22779;DHT22;11556;51.194;3.800;2024-03-22T14:10:37;12.90;99.90
22779;DHT22;11556;51.194;3.800;2024-03-22T14:13:03;12.90;99.90
22779;DHT22;11556;51.194;3.800;2024-03-22T14:15:29;13.00;99.90
22779;DHT22;11556;51.194;3.800;2024-03-22T14:17:58;13.10;99.90
22779;DHT22;11556;51.194;3.800;2024-03-22T14:20:24;13.00;99.90
22779;DHT22;11556;51.194;3.800;2024-03-22T14:22:50;13.10;99.90
22779;DHT22;11556;51.194;3.800;2024-03-22T14:25:16;13.20;99.90
22779;DHT22;11556;51.194;3.800;2024-03-22T14:27:42;13.00;99.90
22779;DHT22;11556;51.194;3.800;2024-03-22T14:30:12;13.10;99.90
22779;DHT22;11556;51.194;3.800;2024-03-22T14:32:39;13.10;99.90
22779;DHT22;11556;51.194;3.800;2024-03-22T14:35:05;13.00;99.90
22779;DHT22;11556;51.194;3.800;2024-03-22T14:37:31;13.00;99.90
22779;DHT22;11556;51.194;3.800;2024-03-22T14:39:57;13.10;99.90
22779;DHT22;11556;51.194;3.800;2024-03-22T14:42:23;13.20;99.90
22779;DHT22;11556;51.194;3.800;2024-03-22T14:44:49;13.20;99.90
22779;DHT22;11556;51.194;3.800;2024-03-22T14:47:15;13.10;99.90
22779;DHT22;11556;51.194;3.800;2024-03-22T14:49:40;13.00;99.90
22779;DHT22;11556;51.194;3.800;2024-03-22T14:52:07;13.00;99.90
22779;DHT22;11556;51.194;3.800;2024-03-22T14:54:33;12.80;99.90
22779;DHT22;11556;51.194;3.800;2024-03-22T14:56:58;12.80;99.90
22779;DHT22;11556;51.194;3.800;2024-03-22T14:59:28;12.90;99.90
22779;DHT22;11556;51.194;3.800;2024-03-22T15:01:53;13.00;99.90
22779;DHT22;11556;51.194;3.800;2024-03-22T15:04:20;13.10;99.90
22779;DHT22;11556;51.194;3.800;2024-03-22T15:06:46;13.10;99.90
22779;DHT22;11556;51.194;3.800;2024-03-22T15:09:14;13.20;99.90
22779;DHT22;11556;51.194;3.800;2024-03-22T15:11:39;13.30;99.90
22779;DHT22;11556;51.194;3.800;2024-03-22T15:14:05;13.40;99.90
22779;DHT22;11556;51.194;3.800;2024-03-22T15:16:31;13.30;99.90
22779;DHT22;11556;51.194;3.800;2024-03-22T15:18:57;13.20;99.90
22779;DHT22;11556;51.194;3.800;2024-03-22T15:21:22;13.20;99.90
22779;DHT22;11556;51.194;3.800;2024-03-22T15:23:48;13.10;99.90